Samadhi — ZCOY9 — position and weather

sailwx.info

Track history (hours):
 
Tides and Currents Weather Stations Pressure Air Temp Water Temp Dewpoint Dewpoint Depression Visibility Wind Speed Wind Dir Waves Ship Positions

Samadhi

Last reported at 2017-Aug-20 17:51 UTC. Time now 2017-Aug-20 21:08 UTC.
Position N 40°37' E 014°30'.

Length 60 m; draft 3.3 m.

Type: Pleasure craft. MMSI: 319420000.

Date/timePositionNaut miles runAvg speedWind from/ knotsBaromVisibWave heightAir tempDewpointWater temp
2017-Aug-20 17:51N 40°37' E 014°30'0 0.0
2017-Aug-20 14:12N 40°37' E 014°30'0 0.0
2017-Aug-20 13:42N 40°37' E 014°30'0 0.0
2017-Aug-20 12:30N 40°37' E 014°30'0 0.1
2017-Aug-20 09:14N 40°37' E 014°30'9 0.7
2017-Aug-19 21:25N 40°33' E 014°20'410.6
2017-Aug-19 21:00N 40°32' E 014°15'0 0.0
2017-Aug-19 20:28N 40°32' E 014°15'0 0.0
2017-Aug-19 19:55N 40°32' E 014°15'0 0.0
2017-Aug-19 19:28N 40°32' E 014°15'0 0.0
2017-Aug-19 18:58N 40°32' E 014°15'0 0.0
2017-Aug-19 18:28N 40°32' E 014°15'0 0.0
2017-Aug-19 17:58N 40°32' E 014°15'0 0.0
2017-Aug-19 17:28N 40°32' E 014°15'0 0.0
2017-Aug-19 14:40N 40°32' E 014°15'0 0.0
2017-Aug-19 13:58N 40°32' E 014°15'0 0.0
2017-Aug-19 13:28N 40°32' E 014°15'0 0.0
2017-Aug-19 12:55N 40°32' E 014°15'0 0.0
2017-Aug-19 12:28N 40°32' E 014°15'0 0.0
2017-Aug-19 11:52N 40°32' E 014°15'0 0.0
2017-Aug-19 11:28N 40°32' E 014°15'0 0.0
2017-Aug-19 10:58N 40°32' E 014°15'0 0.0
2017-Aug-19 10:28N 40°32' E 014°15'0 0.0
2017-Aug-19 09:58N 40°32' E 014°15'0 0.0
2017-Aug-19 09:10N 40°32' E 014°15'0 0.0
2017-Aug-19 08:55N 40°32' E 014°15'0 0.0
2017-Aug-19 08:28N 40°32' E 014°15'0 0.0
2017-Aug-19 07:58N 40°32' E 014°15'0 0.1
2017-Aug-19 07:30N 40°32' E 014°15'3 5.5
2017-Aug-19 07:00N 40°34' E 014°17'612.1
2017-Aug-19 06:30N 40°39' E 014°22'6 0.7
2017-Aug-18 21:30N 40°43' E 014°29'0 0.0
2017-Aug-18 21:00N 40°43' E 014°29'0 0.0
2017-Aug-18 20:30N 40°43' E 014°29'0 0.0
2017-Aug-18 11:36N 40°43' E 014°29'0 0.0
2017-Aug-18 11:30N 40°43' E 014°29'0 0.0
2017-Aug-18 10:54N 40°43' E 014°29'0 0.0
2017-Aug-17 19:30N 40°43' E 014°29'0 0.0
2017-Aug-17 18:54N 40°43' E 014°29'0 0.0
2017-Aug-17 18:30N 40°43' E 014°29'0 0.0
2017-Aug-17 11:18N 40°43' E 014°29'0 0.0
2017-Aug-17 10:54N 40°43' E 014°29'  
2017-Aug-13 22:17N 40°43' E 014°29'4 0.8
2017-Aug-13 17:25N 40°41' E 014°24'513.2
2017-Aug-13 17:00N 40°37' E 014°19'6 9.2
2017-Aug-13 16:21N 40°33' E 014°25'72 5.5
2017-Aug-13 03:15N 39°28' E 015°05'410.2
2017-Aug-13 02:51N 39°24' E 015°06'45 9.9
2017-Aug-12 22:19N 38°40' E 015°08'0 0.0
2017-Aug-11 06:54N 38°40' E 015°07'2 4.5
2017-Aug-11 06:29N 38°41' E 015°06'613.1
2017-Aug-11 06:00N 38°48' E 015°05'11111.7
2017-Aug-10 20:32N 40°32' E 014°15'0 0.2
2017-Aug-10 20:28N 40°32' E 014°15'0 0.5
2017-Aug-10 19:53N 40°32' E 014°15'0 0.4
2017-Aug-10 19:10N 40°32' E 014°15'0 0.4
2017-Aug-10 18:56N 40°33' E 014°15'0 0.0
2017-Aug-10 18:17N 40°32' E 014°15'0 0.0
2017-Aug-10 17:59N 40°32' E 014°15'  
Track history (hours):
 
Tides and Currents Weather Stations Pressure Air Temp Water Temp Dewpoint Dewpoint Depression Visibility Wind Speed Wind Dir Waves Ship Positions

Samadhi

Last reported at 2017-Aug-20 17:51 UTC. Time now 2017-Aug-20 21:08 UTC.
Position N 40°37' E 014°30'.

Length 60 m; draft 3.3 m.

Type: Pleasure craft. MMSI: 319420000.

Date/timePositionNaut miles runAvg speedWind from/ knotsBaromVisibWave heightAir tempDewpointWater temp
2017-Aug-20 17:51N 40°37' E 014°30'0 0.0
2017-Aug-20 14:12N 40°37' E 014°30'0 0.0
2017-Aug-20 13:42N 40°37' E 014°30'0 0.0
2017-Aug-20 12:30N 40°37' E 014°30'0 0.1
2017-Aug-20 09:14N 40°37' E 014°30'9 0.7
2017-Aug-19 21:25N 40°33' E 014°20'410.6
2017-Aug-19 21:00N 40°32' E 014°15'0 0.0
2017-Aug-19 20:28N 40°32' E 014°15'0 0.0
2017-Aug-19 19:55N 40°32' E 014°15'0 0.0
2017-Aug-19 19:28N 40°32' E 014°15'0 0.0
2017-Aug-19 18:58N 40°32' E 014°15'0 0.0
2017-Aug-19 18:28N 40°32' E 014°15'0 0.0
2017-Aug-19 17:58N 40°32' E 014°15'0 0.0
2017-Aug-19 17:28N 40°32' E 014°15'0 0.0
2017-Aug-19 14:40N 40°32' E 014°15'0 0.0
2017-Aug-19 13:58N 40°32' E 014°15'0 0.0
2017-Aug-19 13:28N 40°32' E 014°15'0 0.0
2017-Aug-19 12:55N 40°32' E 014°15'0 0.0
2017-Aug-19 12:28N 40°32' E 014°15'0 0.0
2017-Aug-19 11:52N 40°32' E 014°15'0 0.0
2017-Aug-19 11:28N 40°32' E 014°15'0 0.0
2017-Aug-19 10:58N 40°32' E 014°15'0 0.0
2017-Aug-19 10:28N 40°32' E 014°15'0 0.0
2017-Aug-19 09:58N 40°32' E 014°15'0 0.0
2017-Aug-19 09:10N 40°32' E 014°15'0 0.0
2017-Aug-19 08:55N 40°32' E 014°15'0 0.0
2017-Aug-19 08:28N 40°32' E 014°15'0 0.0
2017-Aug-19 07:58N 40°32' E 014°15'0 0.1
2017-Aug-19 07:30N 40°32' E 014°15'3 5.5
2017-Aug-19 07:00N 40°34' E 014°17'612.1
2017-Aug-19 06:30N 40°39' E 014°22'6 0.7
2017-Aug-18 21:30N 40°43' E 014°29'0 0.0
2017-Aug-18 21:00N 40°43' E 014°29'0 0.0
2017-Aug-18 20:30N 40°43' E 014°29'0 0.0
2017-Aug-18 11:36N 40°43' E 014°29'0 0.0
2017-Aug-18 11:30N 40°43' E 014°29'0 0.0
2017-Aug-18 10:54N 40°43' E 014°29'0 0.0
2017-Aug-17 19:30N 40°43' E 014°29'0 0.0
2017-Aug-17 18:54N 40°43' E 014°29'0 0.0
2017-Aug-17 18:30N 40°43' E 014°29'0 0.0
2017-Aug-17 11:18N 40°43' E 014°29'0 0.0
2017-Aug-17 10:54N 40°43' E 014°29'  
2017-Aug-13 22:17N 40°43' E 014°29'4 0.8
2017-Aug-13 17:25N 40°41' E 014°24'513.2
2017-Aug-13 17:00N 40°37' E 014°19'6 9.2
2017-Aug-13 16:21N 40°33' E 014°25'72 5.5
2017-Aug-13 03:15N 39°28' E 015°05'410.2
2017-Aug-13 02:51N 39°24' E 015°06'45 9.9
2017-Aug-12 22:19N 38°40' E 015°08'0 0.0
2017-Aug-11 06:54N 38°40' E 015°07'2 4.5
2017-Aug-11 06:29N 38°41' E 015°06'613.1
2017-Aug-11 06:00N 38°48' E 015°05'11111.7
2017-Aug-10 20:32N 40°32' E 014°15'0 0.2
2017-Aug-10 20:28N 40°32' E 014°15'0 0.5
2017-Aug-10 19:53N 40°32' E 014°15'0 0.4
2017-Aug-10 19:10N 40°32' E 014°15'0 0.4
2017-Aug-10 18:56N 40°33' E 014°15'0 0.0
2017-Aug-10 18:17N 40°32' E 014°15'0 0.0
2017-Aug-10 17:59N 40°32' E 014°15'  

Dump ship's entire track history